sensor_id;sensor_type;location;lat;lon;timestamp;P1;durP1;ratioP1;P2;durP2;ratioP2
23634;SDS011;11994;51.038;16.974;2023-03-01T00:00:54;78.50;;;51.30;;
23634;SDS011;11994;51.038;16.974;2023-03-01T00:03:25;84.00;;;54.40;;
23634;SDS011;11994;51.038;16.974;2023-03-01T00:05:51;86.70;;;53.70;;
23634;SDS011;11994;51.038;16.974;2023-03-01T00:08:16;84.40;;;52.70;;
23634;SDS011;11994;51.038;16.974;2023-03-01T00:10:41;82.80;;;53.40;;
23634;SDS011;11994;51.038;16.974;2023-03-01T00:13:07;80.70;;;50.60;;
23634;SDS011;11994;51.038;16.974;2023-03-01T00:15:32;81.80;;;51.90;;
23634;SDS011;11994;51.038;16.974;2023-03-01T00:17:59;78.80;;;50.10;;
23634;SDS011;11994;51.038;16.974;2023-03-01T00:20:25;71.90;;;46.80;;
23634;SDS011;11994;51.038;16.974;2023-03-01T00:22:50;77.50;;;48.20;;
23634;SDS011;11994;51.038;16.974;2023-03-01T00:25:15;76.30;;;49.20;;
23634;SDS011;11994;51.038;16.974;2023-03-01T00:27:41;77.00;;;50.90;;
23634;SDS011;11994;51.038;16.974;2023-03-01T00:30:06;76.70;;;50.90;;
23634;SDS011;11994;51.038;16.974;2023-03-01T00:32:33;74.90;;;49.10;;
23634;SDS011;11994;51.038;16.974;2023-03-01T00:34:58;81.30;;;51.00;;
23634;SDS011;11994;51.038;16.974;2023-03-01T00:37:24;80.30;;;50.30;;
23634;SDS011;11994;51.038;16.974;2023-03-01T00:39:49;77.10;;;50.00;;
23634;SDS011;11994;51.038;16.974;2023-03-01T00:42:15;73.60;;;49.60;;
23634;SDS011;11994;51.038;16.974;2023-03-01T00:44:41;77.00;;;50.00;;
23634;SDS011;11994;51.038;16.974;2023-03-01T00:47:06;75.00;;;47.90;;
23634;SDS011;11994;51.038;16.974;2023-03-01T00:49:32;75.30;;;47.70;;
23634;SDS011;11994;51.038;16.974;2023-03-01T00:51:57;71.80;;;44.70;;
23634;SDS011;11994;51.038;16.974;2023-03-01T00:54:22;65.30;;;44.00;;
23634;SDS011;11994;51.038;16.974;2023-03-01T00:56:48;70.10;;;47.30;;
23634;SDS011;11994;51.038;16.974;2023-03-01T00:59:14;70.50;;;49.00;;
23634;SDS011;11994;51.038;16.974;2023-03-01T01:01:39;77.00;;;49.80;;
23634;SDS011;11994;51.038;16.974;2023-03-01T01:04:09;96.90;;;59.80;;
23634;SDS011;11994;51.038;16.974;2023-03-01T01:06:37;85.70;;;55.20;;
23634;SDS011;11994;51.038;16.974;2023-03-01T01:09:07;91.50;;;54.90;;
23634;SDS011;11994;51.038;16.974;2023-03-01T01:11:33;89.60;;;55.20;;
23634;SDS011;11994;51.038;16.974;2023-03-01T01:14:01;82.00;;;51.50;;
23634;SDS011;11994;51.038;16.974;2023-03-01T01:16:27;85.70;;;51.50;;
23634;SDS011;11994;51.038;16.974;2023-03-01T01:18:54;79.20;;;50.80;;
23634;SDS011;11994;51.038;16.974;2023-03-01T01:21:22;81.90;;;49.00;;
23634;SDS011;11994;51.038;16.974;2023-03-01T01:23:49;73.20;;;46.30;;
23634;SDS011;11994;51.038;16.974;2023-03-01T01:26:18;77.40;;;47.90;;
23634;SDS011;11994;51.038;16.974;2023-03-01T01:28:47;79.00;;;50.70;;
23634;SDS011;11994;51.038;16.974;2023-03-01T01:31:12;76.30;;;49.70;;
23634;SDS011;11994;51.038;16.974;2023-03-01T01:33:38;75.80;;;50.30;;
23634;SDS011;11994;51.038;16.974;2023-03-01T01:36:04;80.60;;;50.60;;
23634;SDS011;11994;51.038;16.974;2023-03-01T01:38:30;77.70;;;50.00;;
23634;SDS011;11994;51.038;16.974;2023-03-01T01:40:56;80.20;;;50.50;;
23634;SDS011;11994;51.038;16.974;2023-03-01T01:43:33;75.10;;;50.60;;
23634;SDS011;11994;51.038;16.974;2023-03-01T01:46:10;83.50;;;51.10;;
23634;SDS011;11994;51.038;16.974;2023-03-01T01:49:19;76.50;;;50.80;;
23634;SDS011;11994;51.038;16.974;2023-03-01T01:51:45;80.10;;;49.70;;
23634;SDS011;11994;51.038;16.974;2023-03-01T01:54:19;74.30;;;46.90;;
23634;SDS011;11994;51.038;16.974;2023-03-01T01:56:52;81.20;;;49.10;;
23634;SDS011;11994;51.038;16.974;2023-03-01T02:01:49;78.20;;;49.10;;
23634;SDS011;11994;51.038;16.974;2023-03-01T02:04:16;75.70;;;47.40;;
23634;SDS011;11994;51.038;16.974;2023-03-01T02:06:49;82.40;;;50.10;;
23634;SDS011;11994;51.038;16.974;2023-03-01T02:09:21;81.00;;;48.80;;
23634;SDS011;11994;51.038;16.974;2023-03-01T02:11:48;85.90;;;52.50;;
23634;SDS011;11994;51.038;16.974;2023-03-01T02:14:15;85.00;;;53.60;;
23634;SDS011;11994;51.038;16.974;2023-03-01T02:16:41;86.70;;;53.60;;
23634;SDS011;11994;51.038;16.974;2023-03-01T02:19:07;87.50;;;54.60;;
23634;SDS011;11994;51.038;16.974;2023-03-01T02:21:42;86.40;;;53.10;;
23634;SDS011;11994;51.038;16.974;2023-03-01T02:27:02;82.70;;;51.30;;
23634;SDS011;11994;51.038;16.974;2023-03-01T02:29:27;85.20;;;49.80;;
23634;SDS011;11994;51.038;16.974;2023-03-01T02:31:54;87.40;;;52.50;;
23634;SDS011;11994;51.038;16.974;2023-03-01T02:34:23;88.80;;;53.40;;
23634;SDS011;11994;51.038;16.974;2023-03-01T02:36:58;94.80;;;57.40;;
23634;SDS011;11994;51.038;16.974;2023-03-01T02:39:27;88.30;;;55.00;;
23634;SDS011;11994;51.038;16.974;2023-03-01T02:41:57;100.40;;;58.50;;
23634;SDS011;11994;51.038;16.974;2023-03-01T02:44:24;95.00;;;58.20;;
23634;SDS011;11994;51.038;16.974;2023-03-01T02:46:50;102.30;;;60.20;;
23634;SDS011;11994;51.038;16.974;2023-03-01T02:49:19;103.90;;;59.20;;
23634;SDS011;11994;51.038;16.974;2023-03-01T02:54:50;99.40;;;55.90;;
23634;SDS011;11994;51.038;16.974;2023-03-01T02:57:40;89.70;;;55.70;;
23634;SDS011;11994;51.038;16.974;2023-03-01T03:00:16;98.70;;;57.90;;
23634;SDS011;11994;51.038;16.974;2023-03-01T03:02:48;93.30;;;57.50;;
23634;SDS011;11994;51.038;16.974;2023-03-01T03:05:16;99.00;;;59.60;;
23634;SDS011;11994;51.038;16.974;2023-03-01T03:07:45;99.40;;;59.50;;
23634;SDS011;11994;51.038;16.974;2023-03-01T03:10:13;96.70;;;58.10;;
23634;SDS011;11994;51.038;16.974;2023-03-01T03:12:41;91.90;;;57.20;;
23634;SDS011;11994;51.038;16.974;2023-03-01T03:15:08;94.80;;;58.70;;
23634;SDS011;11994;51.038;16.974;2023-03-01T03:17:37;101.10;;;59.30;;
23634;SDS011;11994;51.038;16.974;2023-03-01T03:20:05;92.10;;;58.30;;
23634;SDS011;11994;51.038;16.974;2023-03-01T03:22:36;90.80;;;58.80;;
23634;SDS011;11994;51.038;16.974;2023-03-01T03:25:02;97.60;;;55.60;;
23634;SDS011;11994;51.038;16.974;2023-03-01T03:27:28;88.80;;;54.90;;
23634;SDS011;11994;51.038;16.974;2023-03-01T03:29:53;84.60;;;52.40;;
23634;SDS011;11994;51.038;16.974;2023-03-01T03:32:19;85.80;;;54.80;;
23634;SDS011;11994;51.038;16.974;2023-03-01T03:34:44;89.20;;;56.60;;
23634;SDS011;11994;51.038;16.974;2023-03-01T03:37:09;91.80;;;56.80;;
23634;SDS011;11994;51.038;16.974;2023-03-01T03:39:55;91.90;;;56.30;;
23634;SDS011;11994;51.038;16.974;2023-03-01T03:42:21;93.30;;;57.50;;
23634;SDS011;11994;51.038;16.974;2023-03-01T03:44:47;86.80;;;56.80;;
23634;SDS011;11994;51.038;16.974;2023-03-01T03:47:12;90.80;;;58.80;;
23634;SDS011;11994;51.038;16.974;2023-03-01T03:49:38;91.40;;;58.80;;
23634;SDS011;11994;51.038;16.974;2023-03-01T03:52:03;95.60;;;59.30;;
23634;SDS011;11994;51.038;16.974;2023-03-01T03:54:29;99.30;;;60.20;;
23634;SDS011;11994;51.038;16.974;2023-03-01T03:56:54;95.80;;;59.40;;
23634;SDS011;11994;51.038;16.974;2023-03-01T03:59:19;94.20;;;60.30;;
23634;SDS011;11994;51.038;16.974;2023-03-01T04:01:45;93.00;;;57.50;;
23634;SDS011;11994;51.038;16.974;2023-03-01T04:04:10;89.00;;;57.40;;
23634;SDS011;11994;51.038;16.974;2023-03-01T04:06:35;89.90;;;56.20;;
23634;SDS011;11994;51.038;16.974;2023-03-01T04:09:01;94.60;;;58.40;;
23634;SDS011;11994;51.038;16.974;2023-03-01T04:11:27;94.90;;;58.50;;
23634;SDS011;11994;51.038;16.974;2023-03-01T04:13:54;94.80;;;60.30;;
23634;SDS011;11994;51.038;16.974;2023-03-01T04:16:21;96.10;;;59.80;;
23634;SDS011;11994;51.038;16.974;2023-03-01T04:18:47;93.40;;;60.00;;
23634;SDS011;11994;51.038;16.974;2023-03-01T04:21:12;100.20;;;62.50;;
23634;SDS011;11994;51.038;16.974;2023-03-01T04:23:38;91.90;;;61.10;;
23634;SDS011;11994;51.038;16.974;2023-03-01T04:26:04;105.70;;;62.30;;
23634;SDS011;11994;51.038;16.974;2023-03-01T04:28:30;95.20;;;61.20;;
23634;SDS011;11994;51.038;16.974;2023-03-01T04:31:01;94.20;;;61.00;;
23634;SDS011;11994;51.038;16.974;2023-03-01T04:33:38;98.90;;;62.40;;
23634;SDS011;11994;51.038;16.974;2023-03-01T04:36:05;102.00;;;62.90;;
23634;SDS011;11994;51.038;16.974;2023-03-01T04:38:33;105.70;;;63.70;;
23634;SDS011;11994;51.038;16.974;2023-03-01T04:41:02;102.10;;;63.50;;
23634;SDS011;11994;51.038;16.974;2023-03-01T04:43:28;104.80;;;66.50;;
23634;SDS011;11994;51.038;16.974;2023-03-01T04:45:53;109.80;;;70.40;;
23634;SDS011;11994;51.038;16.974;2023-03-01T04:48:19;107.00;;;68.40;;
23634;SDS011;11994;51.038;16.974;2023-03-01T04:50:44;108.10;;;68.70;;
23634;SDS011;11994;51.038;16.974;2023-03-01T04:53:09;109.70;;;65.80;;
23634;SDS011;11994;51.038;16.974;2023-03-01T04:55:35;101.70;;;63.50;;
23634;SDS011;11994;51.038;16.974;2023-03-01T04:58:00;98.30;;;61.40;;
23634;SDS011;11994;51.038;16.974;2023-03-01T05:00:25;100.50;;;60.50;;
23634;SDS011;11994;51.038;16.974;2023-03-01T05:02:57;98.40;;;62.60;;
23634;SDS011;11994;51.038;16.974;2023-03-01T05:05:35;100.20;;;64.00;;
23634;SDS011;11994;51.038;16.974;2023-03-01T05:08:03;101.10;;;63.20;;
23634;SDS011;11994;51.038;16.974;2023-03-01T05:10:33;102.40;;;64.90;;
23634;SDS011;11994;51.038;16.974;2023-03-01T05:13:01;101.50;;;64.10;;
23634;SDS011;11994;51.038;16.974;2023-03-01T05:15:29;102.50;;;63.20;;
23634;SDS011;11994;51.038;16.974;2023-03-01T05:17:56;106.60;;;65.20;;
23634;SDS011;11994;51.038;16.974;2023-03-01T05:20:24;95.60;;;60.50;;
23634;SDS011;11994;51.038;16.974;2023-03-01T05:22:51;97.90;;;59.00;;
23634;SDS011;11994;51.038;16.974;2023-03-01T05:25:20;93.50;;;57.90;;
23634;SDS011;11994;51.038;16.974;2023-03-01T05:27:46;93.70;;;59.40;;
23634;SDS011;11994;51.038;16.974;2023-03-01T05:30:12;98.20;;;60.60;;
23634;SDS011;11994;51.038;16.974;2023-03-01T05:32:50;98.10;;;62.10;;
23634;SDS011;11994;51.038;16.974;2023-03-01T05:35:20;103.60;;;63.00;;
23634;SDS011;11994;51.038;16.974;2023-03-01T05:37:47;99.20;;;60.80;;
23634;SDS011;11994;51.038;16.974;2023-03-01T05:40:15;102.10;;;62.90;;
23634;SDS011;11994;51.038;16.974;2023-03-01T05:42:55;100.20;;;63.20;;
23634;SDS011;11994;51.038;16.974;2023-03-01T05:45:22;102.50;;;63.40;;
23634;SDS011;11994;51.038;16.974;2023-03-01T05:47:49;96.70;;;60.70;;
23634;SDS011;11994;51.038;16.974;2023-03-01T05:50:17;94.60;;;61.60;;
23634;SDS011;11994;51.038;16.974;2023-03-01T05:52:58;94.50;;;59.00;;
23634;SDS011;11994;51.038;16.974;2023-03-01T05:55:25;90.10;;;56.20;;
23634;SDS011;11994;51.038;16.974;2023-03-01T05:57:51;89.30;;;53.60;;
23634;SDS011;11994;51.038;16.974;2023-03-01T06:00:17;82.90;;;54.40;;
23634;SDS011;11994;51.038;16.974;2023-03-01T06:02:44;86.40;;;55.10;;
23634;SDS011;11994;51.038;16.974;2023-03-01T06:05:10;85.40;;;54.40;;
23634;SDS011;11994;51.038;16.974;2023-03-01T06:07:38;90.20;;;60.00;;
23634;SDS011;11994;51.038;16.974;2023-03-01T06:10:04;103.80;;;63.70;;
23634;SDS011;11994;51.038;16.974;2023-03-01T06:12:35;100.70;;;64.30;;
23634;SDS011;11994;51.038;16.974;2023-03-01T06:15:02;143.90;;;83.50;;
23634;SDS011;11994;51.038;16.974;2023-03-01T06:17:30;143.10;;;83.70;;
23634;SDS011;11994;51.038;16.974;2023-03-01T06:19:56;148.40;;;87.40;;
23634;SDS011;11994;51.038;16.974;2023-03-01T06:22:22;143.40;;;82.70;;
23634;SDS011;11994;51.038;16.974;2023-03-01T06:24:47;131.20;;;77.80;;
23634;SDS011;11994;51.038;16.974;2023-03-01T06:27:13;138.90;;;82.20;;
23634;SDS011;11994;51.038;16.974;2023-03-01T06:29:38;138.60;;;84.50;;
23634;SDS011;11994;51.038;16.974;2023-03-01T06:32:03;148.00;;;84.40;;
23634;SDS011;11994;51.038;16.974;2023-03-01T06:34:29;132.60;;;81.40;;
23634;SDS011;11994;51.038;16.974;2023-03-01T06:36:55;133.20;;;80.50;;
23634;SDS011;11994;51.038;16.974;2023-03-01T06:39:21;126.30;;;79.00;;
23634;SDS011;11994;51.038;16.974;2023-03-01T06:41:46;118.10;;;73.30;;
23634;SDS011;11994;51.038;16.974;2023-03-01T06:44:12;129.80;;;76.20;;
23634;SDS011;11994;51.038;16.974;2023-03-01T06:46:38;118.90;;;72.70;;
23634;SDS011;11994;51.038;16.974;2023-03-01T06:49:04;112.40;;;70.30;;
23634;SDS011;11994;51.038;16.974;2023-03-01T06:51:34;106.80;;;68.10;;
23634;SDS011;11994;51.038;16.974;2023-03-01T06:53:59;107.20;;;67.90;;
23634;SDS011;11994;51.038;16.974;2023-03-01T06:56:25;88.80;;;55.40;;
23634;SDS011;11994;51.038;16.974;2023-03-01T06:58:50;90.00;;;54.70;;
23634;SDS011;11994;51.038;16.974;2023-03-01T07:01:15;93.30;;;55.10;;
23634;SDS011;11994;51.038;16.974;2023-03-01T07:03:41;85.60;;;54.10;;
23634;SDS011;11994;51.038;16.974;2023-03-01T07:06:09;86.70;;;54.60;;
23634;SDS011;11994;51.038;16.974;2023-03-01T07:08:34;87.80;;;58.00;;
23634;SDS011;11994;51.038;16.974;2023-03-01T07:11:00;92.20;;;60.70;;
23634;SDS011;11994;51.038;16.974;2023-03-01T07:13:27;99.10;;;62.80;;
23634;SDS011;11994;51.038;16.974;2023-03-01T07:15:53;94.50;;;61.60;;
23634;SDS011;11994;51.038;16.974;2023-03-01T07:18:18;97.10;;;60.60;;
23634;SDS011;11994;51.038;16.974;2023-03-01T07:20:43;92.90;;;62.00;;
23634;SDS011;11994;51.038;16.974;2023-03-01T07:23:09;91.00;;;58.90;;
23634;SDS011;11994;51.038;16.974;2023-03-01T07:25:34;89.80;;;60.00;;
23634;SDS011;11994;51.038;16.974;2023-03-01T07:28:00;96.50;;;59.40;;
23634;SDS011;11994;51.038;16.974;2023-03-01T07:30:25;95.10;;;59.00;;
23634;SDS011;11994;51.038;16.974;2023-03-01T07:32:53;89.00;;;56.90;;
23634;SDS011;11994;51.038;16.974;2023-03-01T07:35:22;94.40;;;60.80;;
23634;SDS011;11994;51.038;16.974;2023-03-01T07:37:49;88.60;;;55.90;;
23634;SDS011;11994;51.038;16.974;2023-03-01T07:40:15;90.10;;;56.40;;
23634;SDS011;11994;51.038;16.974;2023-03-01T07:42:40;89.80;;;57.80;;
23634;SDS011;11994;51.038;16.974;2023-03-01T07:45:06;94.50;;;59.40;;
23634;SDS011;11994;51.038;16.974;2023-03-01T07:47:32;95.60;;;57.60;;
23634;SDS011;11994;51.038;16.974;2023-03-01T07:49:57;91.80;;;60.30;;
23634;SDS011;11994;51.038;16.974;2023-03-01T07:52:22;88.70;;;61.10;;
23634;SDS011;11994;51.038;16.974;2023-03-01T07:54:48;90.00;;;59.50;;
23634;SDS011;11994;51.038;16.974;2023-03-01T07:57:13;91.10;;;57.70;;
23634;SDS011;11994;51.038;16.974;2023-03-01T07:59:39;93.40;;;57.00;;
23634;SDS011;11994;51.038;16.974;2023-03-01T08:02:04;80.80;;;53.50;;
23634;SDS011;11994;51.038;16.974;2023-03-01T08:04:31;83.30;;;52.70;;
23634;SDS011;11994;51.038;16.974;2023-03-01T08:06:58;85.10;;;54.10;;
23634;SDS011;11994;51.038;16.974;2023-03-01T08:09:23;89.90;;;57.30;;
23634;SDS011;11994;51.038;16.974;2023-03-01T08:11:48;87.30;;;55.20;;
23634;SDS011;11994;51.038;16.974;2023-03-01T08:14:14;86.90;;;57.60;;
23634;SDS011;11994;51.038;16.974;2023-03-01T08:16:39;90.50;;;59.10;;
23634;SDS011;11994;51.038;16.974;2023-03-01T08:19:05;89.80;;;58.50;;
23634;SDS011;11994;51.038;16.974;2023-03-01T08:21:35;88.70;;;56.50;;
23634;SDS011;11994;51.038;16.974;2023-03-01T08:24:04;95.40;;;58.10;;
23634;SDS011;11994;51.038;16.974;2023-03-01T08:26:31;88.50;;;56.80;;
23634;SDS011;11994;51.038;16.974;2023-03-01T08:28:57;88.40;;;55.30;;
23634;SDS011;11994;51.038;16.974;2023-03-01T08:31:25;83.90;;;53.50;;
23634;SDS011;11994;51.038;16.974;2023-03-01T08:33:53;80.90;;;50.80;;
23634;SDS011;11994;51.038;16.974;2023-03-01T08:36:21;77.90;;;48.00;;
23634;SDS011;11994;51.038;16.974;2023-03-01T08:38:50;68.60;;;42.60;;
23634;SDS011;11994;51.038;16.974;2023-03-01T08:41:16;68.20;;;43.20;;
23634;SDS011;11994;51.038;16.974;2023-03-01T08:43:41;59.00;;;37.20;;
23634;SDS011;11994;51.038;16.974;2023-03-01T08:46:07;62.60;;;40.80;;
23634;SDS011;11994;51.038;16.974;2023-03-01T08:48:32;44.90;;;30.60;;
23634;SDS011;11994;51.038;16.974;2023-03-01T08:51:06;39.00;;;28.70;;
23634;SDS011;11994;51.038;16.974;2023-03-01T08:53:33;57.90;;;35.40;;
23634;SDS011;11994;51.038;16.974;2023-03-01T08:56:01;58.00;;;37.60;;
23634;SDS011;11994;51.038;16.974;2023-03-01T08:58:27;55.80;;;37.70;;
23634;SDS011;11994;51.038;16.974;2023-03-01T09:00:53;60.50;;;39.30;;
23634;SDS011;11994;51.038;16.974;2023-03-01T09:03:19;61.50;;;41.60;;
23634;SDS011;11994;51.038;16.974;2023-03-01T09:05:44;62.70;;;41.40;;
23634;SDS011;11994;51.038;16.974;2023-03-01T09:08:10;53.00;;;38.20;;
23634;SDS011;11994;51.038;16.974;2023-03-01T09:10:39;47.20;;;31.90;;
23634;SDS011;11994;51.038;16.974;2023-03-01T09:13:04;33.90;;;22.60;;
23634;SDS011;11994;51.038;16.974;2023-03-01T09:15:29;32.30;;;22.30;;
23634;SDS011;11994;51.038;16.974;2023-03-01T09:17:55;28.70;;;21.20;;
23634;SDS011;11994;51.038;16.974;2023-03-01T09:20:20;31.70;;;23.20;;
23634;SDS011;11994;51.038;16.974;2023-03-01T09:22:45;29.10;;;22.10;;
23634;SDS011;11994;51.038;16.974;2023-03-01T09:25:11;34.20;;;24.00;;
23634;SDS011;11994;51.038;16.974;2023-03-01T09:27:37;38.20;;;27.60;;
23634;SDS011;11994;51.038;16.974;2023-03-01T09:30:02;38.40;;;27.10;;
23634;SDS011;11994;51.038;16.974;2023-03-01T09:32:29;35.70;;;25.60;;
23634;SDS011;11994;51.038;16.974;2023-03-01T09:34:55;37.40;;;25.90;;
23634;SDS011;11994;51.038;16.974;2023-03-01T09:37:29;38.70;;;26.80;;
23634;SDS011;11994;51.038;16.974;2023-03-01T09:39:56;38.30;;;26.90;;
23634;SDS011;11994;51.038;16.974;2023-03-01T09:42:22;40.40;;;26.60;;
23634;SDS011;11994;51.038;16.974;2023-03-01T09:47:22;38.80;;;26.30;;
23634;SDS011;11994;51.038;16.974;2023-03-01T09:50:14;38.90;;;28.20;;
23634;SDS011;11994;51.038;16.974;2023-03-01T09:53:00;39.50;;;27.30;;
23634;SDS011;11994;51.038;16.974;2023-03-01T09:55:33;40.60;;;27.90;;
23634;SDS011;11994;51.038;16.974;2023-03-01T10:01:11;40.20;;;28.00;;
23634;SDS011;11994;51.038;16.974;2023-03-01T10:04:04;42.20;;;29.00;;
23634;SDS011;11994;51.038;16.974;2023-03-01T10:06:55;42.00;;;29.60;;
23634;SDS011;11994;51.038;16.974;2023-03-01T10:11:58;46.40;;;29.30;;
23634;SDS011;11994;51.038;16.974;2023-03-01T10:14:30;41.40;;;29.30;;
23634;SDS011;11994;51.038;16.974;2023-03-01T10:19:50;45.10;;;29.90;;
23634;SDS011;11994;51.038;16.974;2023-03-01T10:22:17;38.40;;;28.80;;
23634;SDS011;11994;51.038;16.974;2023-03-01T10:24:49;42.40;;;28.90;;
23634;SDS011;11994;51.038;16.974;2023-03-01T10:30:05;44.70;;;30.40;;
23634;SDS011;11994;51.038;16.974;2023-03-01T10:32:36;47.00;;;30.20;;
23634;SDS011;11994;51.038;16.974;2023-03-01T10:35:14;43.00;;;29.30;;
23634;SDS011;11994;51.038;16.974;2023-03-01T10:40:36;47.10;;;29.50;;
23634;SDS011;11994;51.038;16.974;2023-03-01T10:51:41;39.60;;;26.60;;
23634;SDS011;11994;51.038;16.974;2023-03-01T10:54:15;40.90;;;27.80;;
23634;SDS011;11994;51.038;16.974;2023-03-01T10:56:57;41.10;;;28.00;;
23634;SDS011;11994;51.038;16.974;2023-03-01T10:59:26;41.00;;;28.70;;
23634;SDS011;11994;51.038;16.974;2023-03-01T11:07:32;42.60;;;28.50;;
23634;SDS011;11994;51.038;16.974;2023-03-01T11:10:15;41.50;;;28.90;;
23634;SDS011;11994;51.038;16.974;2023-03-01T11:12:43;39.00;;;29.20;;
23634;SDS011;11994;51.038;16.974;2023-03-01T11:15:15;40.00;;;29.70;;
23634;SDS011;11994;51.038;16.974;2023-03-01T11:17:46;45.70;;;29.50;;
23634;SDS011;11994;51.038;16.974;2023-03-01T11:22:37;48.90;;;29.60;;
23634;SDS011;11994;51.038;16.974;2023-03-01T11:25:12;40.70;;;29.50;;
23634;SDS011;11994;51.038;16.974;2023-03-01T11:27:43;42.20;;;29.70;;
23634;SDS011;11994;51.038;16.974;2023-03-01T11:30:15;41.60;;;28.60;;
23634;SDS011;11994;51.038;16.974;2023-03-01T11:33:04;39.10;;;28.10;;
23634;SDS011;11994;51.038;16.974;2023-03-01T11:35:41;43.80;;;28.70;;
23634;SDS011;11994;51.038;16.974;2023-03-01T11:38:23;38.00;;;27.30;;
23634;SDS011;11994;51.038;16.974;2023-03-01T11:55:01;38.80;;;27.60;;
23634;SDS011;11994;51.038;16.974;2023-03-01T11:57:38;35.60;;;27.30;;
23634;SDS011;11994;51.038;16.974;2023-03-01T12:05:31;36.60;;;26.20;;
23634;SDS011;11994;51.038;16.974;2023-03-01T12:08:15;41.80;;;27.30;;
23634;SDS011;11994;51.038;16.974;2023-03-01T12:10:49;40.40;;;26.90;;
23634;SDS011;11994;51.038;16.974;2023-03-01T12:35:40;29.90;;;19.70;;
23634;SDS011;11994;51.038;16.974;2023-03-01T12:38:45;32.90;;;20.20;;
23634;SDS011;11994;51.038;16.974;2023-03-01T12:47:05;29.90;;;18.50;;
23634;SDS011;11994;51.038;16.974;2023-03-01T12:49:39;22.80;;;16.40;;
23634;SDS011;11994;51.038;16.974;2023-03-01T12:52:17;24.70;;;15.80;;
23634;SDS011;11994;51.038;16.974;2023-03-01T12:55:06;22.50;;;15.60;;
23634;SDS011;11994;51.038;16.974;2023-03-01T13:00:50;15.30;;;11.30;;
23634;SDS011;11994;51.038;16.974;2023-03-01T13:03:38;17.80;;;11.90;;
23634;SDS011;11994;51.038;16.974;2023-03-01T13:15:32;13.50;;;9.90;;
23634;SDS011;11994;51.038;16.974;2023-03-01T13:33:53;27.10;;;16.30;;
23634;SDS011;11994;51.038;16.974;2023-03-01T13:46:51;21.50;;;14.80;;
23634;SDS011;11994;51.038;16.974;2023-03-01T13:49:58;23.90;;;15.20;;
23634;SDS011;11994;51.038;16.974;2023-03-01T13:55:00;15.90;;;10.20;;
23634;SDS011;11994;51.038;16.974;2023-03-01T13:57:37;17.60;;;10.00;;
23634;SDS011;11994;51.038;16.974;2023-03-01T14:00:06;13.80;;;9.70;;
23634;SDS011;11994;51.038;16.974;2023-03-01T14:02:33;17.20;;;10.00;;
23634;SDS011;11994;51.038;16.974;2023-03-01T14:04:59;15.70;;;9.50;;
23634;SDS011;11994;51.038;16.974;2023-03-01T14:07:26;16.40;;;10.90;;
23634;SDS011;11994;51.038;16.974;2023-03-01T14:10:00;15.80;;;9.20;;
23634;SDS011;11994;51.038;16.974;2023-03-01T14:15:38;18.30;;;10.30;;
23634;SDS011;11994;51.038;16.974;2023-03-01T14:18:29;15.90;;;11.30;;
23634;SDS011;11994;51.038;16.974;2023-03-01T14:21:07;15.10;;;11.70;;
23634;SDS011;11994;51.038;16.974;2023-03-01T14:23:33;15.80;;;10.70;;
23634;SDS011;11994;51.038;16.974;2023-03-01T14:26:00;13.50;;;9.50;;
23634;SDS011;11994;51.038;16.974;2023-03-01T14:28:30;15.20;;;10.10;;
23634;SDS011;11994;51.038;16.974;2023-03-01T14:30:59;16.30;;;10.30;;
23634;SDS011;11994;51.038;16.974;2023-03-01T14:36:05;18.70;;;11.10;;
23634;SDS011;11994;51.038;16.974;2023-03-01T14:41:18;17.50;;;10.90;;
23634;SDS011;11994;51.038;16.974;2023-03-01T14:43:51;13.90;;;10.80;;
23634;SDS011;11994;51.038;16.974;2023-03-01T14:46:23;15.00;;;11.00;;
23634;SDS011;11994;51.038;16.974;2023-03-01T14:48:55;17.60;;;10.60;;
23634;SDS011;11994;51.038;16.974;2023-03-01T14:51:26;16.80;;;10.50;;
23634;SDS011;11994;51.038;16.974;2023-03-01T14:53:51;16.80;;;10.80;;
23634;SDS011;11994;51.038;16.974;2023-03-01T14:56:17;15.70;;;10.40;;
23634;SDS011;11994;51.038;16.974;2023-03-01T14:58:43;17.30;;;10.90;;
23634;SDS011;11994;51.038;16.974;2023-03-01T15:01:10;15.90;;;11.70;;
23634;SDS011;11994;51.038;16.974;2023-03-01T15:03:57;17.30;;;11.60;;
23634;SDS011;11994;51.038;16.974;2023-03-01T15:06:26;15.80;;;11.30;;
23634;SDS011;11994;51.038;16.974;2023-03-01T15:08:52;15.90;;;11.50;;
23634;SDS011;11994;51.038;16.974;2023-03-01T15:11:22;18.90;;;12.00;;
23634;SDS011;11994;51.038;16.974;2023-03-01T15:13:52;16.50;;;12.10;;
23634;SDS011;11994;51.038;16.974;2023-03-01T15:16:27;17.30;;;12.10;;
23634;SDS011;11994;51.038;16.974;2023-03-01T15:18:59;18.40;;;11.90;;
23634;SDS011;11994;51.038;16.974;2023-03-01T15:21:29;19.30;;;11.70;;
23634;SDS011;11994;51.038;16.974;2023-03-01T15:24:05;19.80;;;12.20;;
23634;SDS011;11994;51.038;16.974;2023-03-01T15:26:53;16.40;;;11.70;;
23634;SDS011;11994;51.038;16.974;2023-03-01T15:29:25;14.50;;;10.30;;
23634;SDS011;11994;51.038;16.974;2023-03-01T15:32:05;20.60;;;12.10;;
23634;SDS011;11994;51.038;16.974;2023-03-01T15:34:49;22.50;;;14.80;;
23634;SDS011;11994;51.038;16.974;2023-03-01T15:40:17;19.00;;;11.30;;
23634;SDS011;11994;51.038;16.974;2023-03-01T15:47:48;16.40;;;11.00;;
23634;SDS011;11994;51.038;16.974;2023-03-01T15:52:56;18.40;;;13.00;;
23634;SDS011;11994;51.038;16.974;2023-03-01T15:55:28;18.00;;;13.10;;
23634;SDS011;11994;51.038;16.974;2023-03-01T15:58:05;18.30;;;12.20;;
23634;SDS011;11994;51.038;16.974;2023-03-01T16:00:37;18.00;;;11.50;;
23634;SDS011;11994;51.038;16.974;2023-03-01T16:03:04;14.50;;;11.00;;
23634;SDS011;11994;51.038;16.974;2023-03-01T16:05:31;19.90;;;12.40;;
23634;SDS011;11994;51.038;16.974;2023-03-01T16:07:57;19.00;;;11.70;;
23634;SDS011;11994;51.038;16.974;2023-03-01T16:10:23;19.90;;;11.90;;
23634;SDS011;11994;51.038;16.974;2023-03-01T16:12:50;19.70;;;11.80;;
23634;SDS011;11994;51.038;16.974;2023-03-01T16:15:30;21.90;;;12.50;;
23634;SDS011;11994;51.038;16.974;2023-03-01T16:20:24;23.30;;;13.70;;
23634;SDS011;11994;51.038;16.974;2023-03-01T16:22:50;22.00;;;14.60;;
23634;SDS011;11994;51.038;16.974;2023-03-01T16:25:17;26.60;;;15.50;;
23634;SDS011;11994;51.038;16.974;2023-03-01T16:27:48;28.90;;;17.30;;
23634;SDS011;11994;51.038;16.974;2023-03-01T16:30:15;30.40;;;16.20;;
23634;SDS011;11994;51.038;16.974;2023-03-01T16:32:44;24.20;;;15.00;;
23634;SDS011;11994;51.038;16.974;2023-03-01T16:35:11;22.80;;;14.70;;
23634;SDS011;11994;51.038;16.974;2023-03-01T16:37:38;22.90;;;14.40;;
23634;SDS011;11994;51.038;16.974;2023-03-01T16:40:05;20.10;;;13.60;;
23634;SDS011;11994;51.038;16.974;2023-03-01T16:42:35;19.30;;;13.80;;
23634;SDS011;11994;51.038;16.974;2023-03-01T16:45:00;24.20;;;14.40;;
23634;SDS011;11994;51.038;16.974;2023-03-01T16:47:27;23.10;;;15.70;;
23634;SDS011;11994;51.038;16.974;2023-03-01T16:49:52;29.80;;;16.10;;
23634;SDS011;11994;51.038;16.974;2023-03-01T16:52:19;28.10;;;15.10;;